< < Back
Terminal Aerodrome Forecast


Current Version              Previous Versions:   1  2  3  4  5  6  7  8  9  

Terminal Aerodrome Forecast

967
FTUS42 KMLB 241100
TAFDAB
TAF
KDAB 241133Z 2412/2512 21008KT P6SM FEW008 OVC020
      TEMPO 2412/2413 BKN008
     FM241400 20009KT P6SM BKN025
     FM241700 21010KT P6SM SCT035
     FM250100 22003KT P6SM SCT040 BKN250
     FM250900 18002KT 4SM BR BKN008=



Latest METAR

948
SAUS80 KWBC 231200 RRG
MTRDAB
METAR KDAB 241153Z 20007KT 9SM FEW009 BKN023 24/22 A2996 RMK AO2 SLP143
70001 T02390222 10239 20228 53013


USA.gov is the U.S. government's official web portal to all federal, state and local government web resources and services.